Time;durP1;ratioP1;P1;durP2;ratioP2;P2;SDS_P1;SDS_P2;PMS_P1;PMS_P2;Temp;Humidity;BMP_temperature;BMP_pressure;BME280_temperature;BME280_humidity;BME280_pressure;Samples;Min_cycle;Max_cycle;Signal;HPM_P1;HPM_P2
2021/06/15 00:00:14;;;;;;;3.50;2.50;;;19.80;61.30;;;;;;5095482;28;20031;-78
2021/06/15 00:02:40;;;;;;;3.28;2.42;;;19.80;61.30;;;;;;5108764;28;20438;-78
2021/06/15 00:05:09;;;;;;;3.95;2.35;;;19.70;61.10;;;;;;5089860;28;20766;-78
2021/06/15 00:07:35;;;;;;;3.75;2.30;;;19.70;61.20;;;;;;5108105;28;20028;-78
2021/06/15 00:10:04;;;;;;;7.22;2.17;;;19.70;61.10;;;;;;5089503;28;20536;-78
2021/06/15 00:12:30;;;;;;;4.70;2.80;;;19.70;61.10;;;;;;5107505;28;20023;-78
2021/06/15 00:14:56;;;;;;;4.80;3.00;;;19.70;61.10;;;;;;5107375;28;20070;-78
2021/06/15 00:17:22;;;;;;;3.70;2.70;;;19.70;61.10;;;;;;5108050;28;20433;-78
2021/06/15 00:19:47;;;;;;;5.28;2.55;;;19.60;60.90;;;;;;5107458;28;20363;-77
2021/06/15 00:22:13;;;;;;;3.03;2.33;;;19.60;60.90;;;;;;5107279;28;20035;-77
2021/06/15 00:24:40;;;;;;;5.13;2.28;;;19.60;60.90;;;;;;5107326;28;20027;-77
2021/06/15 00:27:06;;;;;;;3.72;2.50;;;19.60;60.90;;;;;;5107917;28;20446;-77
2021/06/15 00:29:32;;;;;;;3.63;2.55;;;19.50;60.70;;;;;;5107567;28;20023;-78
2021/06/15 00:31:58;;;;;;;6.47;2.78;;;19.50;60.70;;;;;;5107546;28;20032;-78
2021/06/15 00:34:24;;;;;;;2.90;2.00;;;19.50;60.70;;;;;;5107470;28;20110;-78
2021/06/15 00:36:50;;;;;;;7.22;2.50;;;19.50;60.70;;;;;;5106927;28;20536;-78
2021/06/15 00:39:16;;;;;;;2.95;2.20;;;19.50;60.80;;;;;;5107174;28;20027;-78
2021/06/15 00:41:41;;;;;;;5.65;2.35;;;19.40;60.50;;;;;;5107584;28;20039;-77
2021/06/15 00:44:09;;;;;;;4.30;2.40;;;19.40;60.60;;;;;;5082238;28;20405;-77
2021/06/15 00:46:35;;;;;;;4.85;2.30;;;19.40;60.60;;;;;;5107041;28;20039;-77
2021/06/15 00:49:02;;;;;;;4.15;2.28;;;19.30;60.50;;;;;;5089029;28;20068;-77
2021/06/15 00:51:28;;;;;;;3.53;2.47;;;19.30;60.50;;;;;;5088650;28;20046;-78
2021/06/15 00:53:54;;;;;;;3.42;2.15;;;19.30;60.50;;;;;;5088661;28;20039;-77
2021/06/15 00:56:21;;;;;;;3.45;2.30;;;19.30;60.50;;;;;;5072655;28;20047;-77
2021/06/15 00:58:47;;;;;;;3.83;2.40;;;19.20;60.40;;;;;;5088437;28;20038;-78
2021/06/15 01:01:14;;;;;;;5.13;2.72;;;19.20;60.40;;;;;;5088963;28;20027;-78
2021/06/15 01:03:45;;;;;;;3.78;2.17;;;19.10;60.30;;;;;;5072720;28;20023;-78
2021/06/15 01:06:18;;;;;;;5.65;2.50;;;19.10;60.30;;;;;;5073540;28;20030;-78
2021/06/15 01:08:54;;;;;;;3.37;2.20;;;19.10;60.40;;;;;;5075380;28;20521;-77
2021/06/15 01:11:39;;;;;;;5.70;2.83;;;19.00;60.20;;;;;;5093314;28;20027;-78
2021/06/15 01:14:38;;;;;;;4.53;2.47;;;19.00;60.20;;;;;;5092625;28;20086;-79
2021/06/15 01:17:15;;;;;;;5.07;2.03;;;19.00;60.40;;;;;;5065104;28;20048;-78
2021/06/15 01:19:56;;;;;;;5.03;2.08;;;18.90;60.10;;;;;;5110975;28;20066;-77
2021/06/15 01:22:39;;;;;;;4.45;3.10;;;18.90;60.30;;;;;;5092760;28;20039;-78
2021/06/15 01:25:24;;;;;;;4.90;2.55;;;18.90;60.30;;;;;;5092475;28;20044;-79
2021/06/15 01:27:56;;;;;;;4.82;1.98;;;18.80;60.10;;;;;;5092511;28;20089;-79
2021/06/15 01:30:29;;;;;;;4.28;2.25;;;18.80;60.20;;;;;;5089763;28;20038;-80
2021/06/15 01:32:59;;;;;;;3.60;2.00;;;18.70;60.00;;;;;;5111340;28;20027;-79
2021/06/15 01:35:29;;;;;;;4.82;2.22;;;18.70;60.20;;;;;;5094016;28;20031;-79
2021/06/15 01:38:14;;;;;;;6.15;2.67;;;18.70;60.10;;;;;;5112518;28;20040;-79
2021/06/15 01:40:51;;;;;;;5.53;2.80;;;18.60;60.00;;;;;;5080635;28;20362;-79
2021/06/15 01:43:32;;;;;;;3.63;2.03;;;18.60;60.00;;;;;;5077142;28;20024;-79
2021/06/15 01:46:03;;;;;;;4.20;2.38;;;18.50;59.80;;;;;;5104854;28;20040;-79
2021/06/15 01:48:46;;;;;;;3.33;2.00;;;18.50;59.80;;;;;;5080850;28;20028;-79
2021/06/15 01:51:14;;;;;;;4.85;2.42;;;18.50;59.80;;;;;;5108306;28;20112;-79
2021/06/15 01:53:50;;;;;;;4.50;2.13;;;18.50;59.80;;;;;;5079788;28;20481;-79
2021/06/15 01:56:24;;;;;;;6.18;2.53;;;18.50;59.80;;;;;;5080471;28;20047;-79
2021/06/15 01:58:58;;;;;;;3.63;2.23;;;18.40;59.60;;;;;;5079139;28;20031;-79
2021/06/15 02:01:29;;;;;;;4.22;2.75;;;18.40;59.70;;;;;;5079885;28;20027;-79
2021/06/15 02:03:59;;;;;;;4.40;2.28;;;18.40;59.70;;;;;;5080011;28;20031;-79
2021/06/15 02:06:29;;;;;;;3.50;1.98;;;18.30;59.50;;;;;;5080122;28;20027;-79
2021/06/15 02:08:59;;;;;;;5.50;2.50;;;18.30;59.50;;;;;;5079492;28;20093;-79
2021/06/15 02:11:48;;;;;;;6.32;2.15;;;18.30;59.70;;;;;;5080389;28;20031;-79
2021/06/15 02:14:37;;;;;;;5.95;2.35;;;18.20;59.40;;;;;;5098322;28;20051;-79
2021/06/15 02:17:26;;;;;;;5.93;2.47;;;18.20;59.50;;;;;;5082132;28;20042;-79
2021/06/15 02:20:23;;;;;;;6.28;2.33;;;18.10;59.30;;;;;;5062267;28;20036;-78
2021/06/15 02:22:53;;;;;;;4.90;2.20;;;18.10;59.30;;;;;;5079246;28;20471;-78
2021/06/15 02:25:28;;;;;;;4.05;2.30;;;18.10;59.30;;;;;;5079272;28;20035;-79
2021/06/15 02:27:57;;;;;;;5.57;2.00;;;18.00;59.30;;;;;;5079059;28;20031;-78
2021/06/15 02:30:24;;;;;;;4.07;2.15;;;18.00;59.30;;;;;;5079187;28;20066;-79
2021/06/15 02:33:11;;;;;;;3.75;2.13;;;18.00;59.30;;;;;;5080221;28;20514;-78
2021/06/15 02:35:43;;;;;;;4.50;2.20;;;17.90;59.20;;;;;;5079300;28;20042;-79
2021/06/15 02:38:17;;;;;;;4.38;2.25;;;17.90;59.40;;;;;;5079356;28;20023;-79
2021/06/15 02:40:44;;;;;;;3.85;2.30;;;17.90;59.40;;;;;;5076902;28;20047;-80
2021/06/15 02:43:13;;;;;;;3.78;2.20;;;17.80;59.30;;;;;;5078819;28;20023;-81
2021/06/15 02:45:43;;;;;;;4.07;2.15;;;17.70;59.20;;;;;;5062096;28;20027;-79
2021/06/15 02:48:12;;;;;;;4.28;2.53;;;17.70;59.20;;;;;;5062206;28;20020;-79
2021/06/15 02:50:47;;;;;;;5.30;1.90;;;17.70;59.20;;;;;;5079750;28;20023;-79
2021/06/15 02:53:22;;;;;;;4.88;2.38;;;17.70;59.30;;;;;;5078928;28;20019;-79
2021/06/15 02:55:57;;;;;;;9.25;2.33;;;17.60;59.20;;;;;;5078281;28;20036;-79
2021/06/15 02:58:28;;;;;;;5.40;2.22;;;17.60;59.20;;;;;;5079391;28;20042;-79
2021/06/15 03:00:55;;;;;;;5.35;2.33;;;17.50;59.00;;;;;;5078680;28;20482;-79
2021/06/15 03:03:22;;;;;;;3.08;2.33;;;17.50;59.10;;;;;;5078772;28;20070;-79
2021/06/15 03:05:48;;;;;;;4.60;2.13;;;17.40;58.90;;;;;;5078276;28;20023;-79
2021/06/15 03:08:16;;;;;;;5.50;2.25;;;17.40;59.20;;;;;;5078846;28;20432;-79
2021/06/15 03:10:43;;;;;;;3.95;2.28;;;17.40;58.90;;;;;;5113700;28;20049;-78
2021/06/15 03:13:17;;;;;;;3.85;2.10;;;17.30;58.80;;;;;;5094998;28;20043;-79
2021/06/15 03:15:53;;;;;;;4.20;1.67;;;17.30;58.90;;;;;;5094938;28;20477;-79
2021/06/15 03:18:25;;;;;;;4.80;2.25;;;17.30;59.00;;;;;;5078685;28;20114;-79
2021/06/15 03:20:54;;;;;;;5.10;2.10;;;17.20;58.80;;;;;;5078113;28;20471;-79
2021/06/15 03:23:43;;;;;;;3.08;1.92;;;17.20;58.90;;;;;;5078120;28;20073;-79
2021/06/15 03:26:13;;;;;;;5.53;2.63;;;17.10;58.80;;;;;;5078040;28;20028;-79
2021/06/15 03:28:43;;;;;;;6.10;2.10;;;17.10;59.40;;;;;;5077666;28;20027;-79
2021/06/15 03:31:15;;;;;;;4.75;2.35;;;17.00;58.60;;;;;;5078187;28;20081;-79
2021/06/15 03:33:42;;;;;;;3.38;2.30;;;17.00;58.70;;;;;;5094574;28;20027;-79
2021/06/15 03:36:10;;;;;;;3.40;1.98;;;17.00;58.80;;;;;;5077899;28;20039;-78
2021/06/15 03:38:37;;;;;;;5.70;2.35;;;17.00;58.80;;;;;;5077800;28;20024;-78
2021/06/15 03:41:08;;;;;;;5.60;2.05;;;16.90;58.70;;;;;;5094776;28;20035;-79
2021/06/15 03:43:39;;;;;;;7.38;2.53;;;16.90;58.80;;;;;;5077638;28;20031;-78
2021/06/15 03:46:08;;;;;;;4.63;2.20;;;16.80;58.70;;;;;;5077515;28;20122;-79
2021/06/15 03:48:40;;;;;;;3.22;2.30;;;16.80;58.70;;;;;;5094506;28;20084;-78
2021/06/15 03:51:29;;;;;;;7.57;2.50;;;16.80;58.90;;;;;;5077375;28;20028;-78
2021/06/15 03:54:06;;;;;;;5.05;2.03;;;16.70;58.70;;;;;;5077101;28;20039;-78
2021/06/15 03:56:42;;;;;;;4.28;2.17;;;16.70;58.60;;;;;;5112551;28;20039;-78
2021/06/15 03:59:13;;;;;;;7.70;2.38;;;16.60;58.60;;;;;;5112470;28;20103;-78
2021/06/15 04:01:41;;;;;;;4.78;2.25;;;16.60;58.60;;;;;;5112374;28;20028;-78
2021/06/15 04:04:14;;;;;;;5.18;2.50;;;16.60;58.60;;;;;;5112824;28;20055;-78
2021/06/15 04:06:46;;;;;;;4.75;2.35;;;16.60;58.70;;;;;;5112646;28;20066;-78
2021/06/15 04:09:14;;;;;;;4.18;2.53;;;16.50;58.50;;;;;;5094405;28;20165;-78
2021/06/15 04:11:42;;;;;;;6.75;2.08;;;16.50;58.50;;;;;;5094214;28;20024;-78
2021/06/15 04:14:11;;;;;;;3.88;2.20;;;16.50;58.50;;;;;;5111755;28;20120;-78
2021/06/15 04:16:39;;;;;;;6.20;2.72;;;16.40;58.40;;;;;;5112334;28;20028;-79
2021/06/15 04:19:11;;;;;;;5.85;2.60;;;16.50;58.50;;;;;;5094244;28;20079;-79
2021/06/15 04:21:42;;;;;;;5.03;2.22;;;16.50;58.60;;;;;;5093467;28;20065;-78
2021/06/15 04:24:12;;;;;;;9.95;2.95;;;16.40;58.40;;;;;;5094392;28;20023;-78
2021/06/15 04:26:38;;;;;;;3.00;1.98;;;16.40;58.40;;;;;;5093935;28;20112;-79
2021/06/15 04:29:06;;;;;;;6.18;2.80;;;16.40;58.40;;;;;;5111831;28;20046;-78
2021/06/15 04:31:34;;;;;;;4.53;2.60;;;16.40;58.50;;;;;;5112063;28;20482;-79
2021/06/15 04:34:03;;;;;;;3.50;2.35;;;16.30;58.30;;;;;;5111730;28;20577;-78
2021/06/15 04:36:34;;;;;;;4.63;2.42;;;16.30;58.30;;;;;;5111620;28;20044;-78
2021/06/15 04:39:05;;;;;;;3.75;2.22;;;16.30;58.30;;;;;;5093830;28;20027;-78
2021/06/15 04:41:37;;;;;;;4.88;2.85;;;16.30;58.40;;;;;;5112071;28;20063;-78
2021/06/15 04:44:04;;;;;;;5.80;2.72;;;16.30;58.40;;;;;;5085603;28;20034;-79
2021/06/15 04:46:45;;;;;;;3.42;2.25;;;16.30;59.00;;;;;;5093317;28;20035;-78
2021/06/15 04:49:30;;;;;;;5.28;2.60;;;16.30;58.50;;;;;;5039990;28;20128;-79
2021/06/15 04:52:00;;;;;;;5.60;2.53;;;16.30;58.50;;;;;;5069994;28;20075;-78
2021/06/15 04:54:33;;;;;;;6.22;2.40;;;16.20;58.30;;;;;;5070207;28;20133;-78
2021/06/15 04:57:02;;;;;;;9.67;2.40;;;16.20;58.30;;;;;;5069959;28;20442;-79
2021/06/15 04:59:30;;;;;;;5.00;2.47;;;16.20;58.30;;;;;;5069698;28;20055;-78
2021/06/15 05:01:57;;;;;;;5.13;2.40;;;16.30;58.50;;;;;;5053514;28;20039;-78
2021/06/15 05:04:24;;;;;;;3.53;2.60;;;16.30;58.60;;;;;;5050077;28;20479;-78
2021/06/15 05:06:51;;;;;;;3.03;2.28;;;16.20;58.40;;;;;;5052159;28;20035;-77
2021/06/15 05:09:20;;;;;;;4.43;2.22;;;16.20;58.40;;;;;;5086229;28;20055;-78
2021/06/15 05:11:49;;;;;;;6.22;2.80;;;16.20;58.30;;;;;;5086516;28;20135;-78
2021/06/15 05:14:17;;;;;;;2.97;2.20;;;16.20;58.30;;;;;;5081705;28;20044;-78
2021/06/15 05:16:44;;;;;;;4.15;2.35;;;16.30;58.50;;;;;;5106740;28;20038;-78
2021/06/15 05:19:10;;;;;;;3.25;2.20;;;16.30;58.50;;;;;;5106312;28;20027;-79
2021/06/15 05:21:59;;;;;;;2.53;2.00;;;16.30;58.40;;;;;;5088229;28;20024;-78
2021/06/15 05:24:46;;;;;;;4.15;2.58;;;16.30;58.50;;;;;;5106687;28;20142;-79
2021/06/15 05:27:21;;;;;;;3.80;1.80;;;16.30;58.40;;;;;;5106883;28;20490;-79
2021/06/15 05:29:48;;;;;;;6.32;2.25;;;16.40;58.50;;;;;;5106700;28;20539;-78
2021/06/15 05:32:14;;;;;;;4.60;2.70;;;16.40;58.40;;;;;;5084687;28;20032;-78
2021/06/15 05:34:40;;;;;;;2.50;2.03;;;16.40;58.30;;;;;;5103540;28;20084;-78
2021/06/15 05:37:07;;;;;;;4.97;2.20;;;16.40;58.30;;;;;;5088483;28;20027;-77
2021/06/15 05:39:35;;;;;;;4.88;2.83;;;16.50;58.50;;;;;;5068923;28;20051;-77
2021/06/15 05:42:01;;;;;;;4.40;2.63;;;16.50;58.40;;;;;;5068209;28;20024;-76
2021/06/15 05:44:27;;;;;;;3.50;2.17;;;16.60;58.50;;;;;;5050691;28;20055;-77
2021/06/15 05:46:53;;;;;;;3.25;2.25;;;16.60;58.50;;;;;;5085484;28;20087;-77
2021/06/15 05:49:20;;;;;;;4.93;2.20;;;16.60;58.40;;;;;;5086097;28;20048;-77
2021/06/15 05:51:46;;;;;;;2.72;2.42;;;16.70;58.50;;;;;;5067996;28;20047;-76
2021/06/15 05:54:12;;;;;;;4.28;2.10;;;16.70;58.50;;;;;;5085419;28;20035;-76
2021/06/15 05:56:38;;;;;;;3.70;2.30;;;16.80;58.60;;;;;;5092134;28;20031;-82
2021/06/15 05:59:04;;;;;;;7.22;2.97;;;16.80;58.60;;;;;;5074474;28;20108;-78
2021/06/15 06:01:30;;;;;;;10.27;3.10;;;16.80;58.60;;;;;;5075116;28;20028;-83
2021/06/15 06:04:08;;;;;;;6.97;2.95;;;16.90;58.90;;;;;;5087136;28;20150;-81
2021/06/15 06:09:20;;;;;;;11.10;3.97;;;17.20;59.40;;;;;;5086161;28;20024;-83
2021/06/15 06:11:47;;;;;;;10.55;3.30;;;17.30;59.40;;;;;;5071919;28;20035;-89
2021/06/15 06:14:22;;;;;;;8.70;3.45;;;17.40;59.30;;;;;;5060738;28;20070;-88
2021/06/15 06:16:57;;;;;;;14.70;3.85;;;17.60;59.40;;;;;;5062026;28;20062;-87
2021/06/15 06:19:23;;;;;;;13.40;4.32;;;17.70;59.10;;;;;;5077985;28;20027;-83
2021/06/15 06:21:50;;;;;;;13.38;3.97;;;17.80;58.80;;;;;;5083229;28;20024;-85
2021/06/15 06:24:22;;;;;;;11.20;4.53;;;17.90;58.50;;;;;;5060273;28;20031;-82
2021/06/15 06:26:53;;;;;;;13.40;4.00;;;18.00;58.20;;;;;;5074300;28;20445;-83
2021/06/15 06:29:20;;;;;;;9.18;3.78;;;18.10;57.90;;;;;;5075149;28;20031;-83
2021/06/15 06:31:48;;;;;;;7.88;3.33;;;18.30;57.70;;;;;;5074368;28;20857;-83
2021/06/15 06:34:14;;;;;;;11.68;4.03;;;18.40;57.50;;;;;;5074587;28;20371;-82
2021/06/15 06:36:41;;;;;;;11.93;5.18;;;18.50;57.20;;;;;;5069333;28;20038;-82
2021/06/15 06:39:08;;;;;;;12.60;4.18;;;18.70;57.00;;;;;;5071302;28;20038;-83
2021/06/15 06:41:35;;;;;;;11.05;3.75;;;18.80;56.50;;;;;;5054330;28;20028;-83
2021/06/15 06:44:01;;;;;;;13.02;4.13;;;18.90;56.20;;;;;;5088114;28;20034;-83
2021/06/15 06:46:29;;;;;;;11.13;4.03;;;19.10;56.20;;;;;;5074740;28;20027;-85
2021/06/15 06:48:55;;;;;;;11.82;3.83;;;19.20;55.90;;;;;;5059769;28;20032;-83
2021/06/15 06:51:22;;;;;;;10.43;3.58;;;19.40;55.80;;;;;;5054404;28;20039;-81
2021/06/15 06:53:48;;;;;;;11.05;3.67;;;19.60;55.60;;;;;;5063851;28;20100;-82
2021/06/15 06:56:14;;;;;;;9.23;3.00;;;19.80;55.40;;;;;;5073647;28;20115;-81
2021/06/15 06:58:41;;;;;;;10.85;3.83;;;20.00;55.10;;;;;;5073947;28;20027;-81
2021/06/15 07:01:07;;;;;;;11.98;4.95;;;20.30;55.10;;;;;;5074128;28;20483;-81
2021/06/15 07:03:33;;;;;;;9.85;3.63;;;20.50;54.80;;;;;;5072635;28;20031;-81
2021/06/15 07:05:59;;;;;;;7.15;3.35;;;20.70;54.50;;;;;;5073747;28;20032;-83
2021/06/15 07:08:25;;;;;;;12.25;4.32;;;20.90;54.30;;;;;;5073108;28;20052;-81
2021/06/15 07:10:52;;;;;;;10.82;4.05;;;21.20;54.30;;;;;;5074042;28;20494;-81
2021/06/15 07:13:18;;;;;;;11.23;3.97;;;21.40;54.00;;;;;;5073193;28;20059;-82
2021/06/15 07:15:44;;;;;;;8.23;3.85;;;21.60;53.70;;;;;;5073417;28;20489;-84
2021/06/15 07:18:11;;;;;;;12.98;3.97;;;21.80;53.30;;;;;;5073857;28;20027;-84
2021/06/15 07:20:37;;;;;;;11.38;3.75;;;22.10;53.10;;;;;;5074386;28;20024;-84
2021/06/15 07:23:05;;;;;;;8.57;3.15;;;22.40;53.00;;;;;;5090626;28;20484;-84
2021/06/15 07:25:32;;;;;;;12.30;4.22;;;22.60;52.60;;;;;;5074815;28;20114;-83
2021/06/15 07:28:01;;;;;;;7.05;3.17;;;22.90;52.50;;;;;;5073460;28;20100;-85
2021/06/15 07:30:27;;;;;;;10.63;3.47;;;23.10;52.00;;;;;;5074269;28;20051;-83
2021/06/15 07:32:57;;;;;;;9.43;3.72;;;23.40;52.00;;;;;;5068654;28;20043;-86
2021/06/15 07:35:26;;;;;;;10.18;3.90;;;23.70;51.80;;;;;;5073417;28;20066;-84
2021/06/15 07:37:53;;;;;;;9.63;3.35;;;24.00;51.70;;;;;;5072333;28;20020;-87
2021/06/15 07:40:23;;;;;;;6.18;2.88;;;24.20;51.30;;;;;;5091645;28;20031;-86
2021/06/15 07:42:58;;;;;;;9.80;3.83;;;24.50;51.10;;;;;;5074969;28;20046;-87
2021/06/15 07:45:26;;;;;;;10.40;3.20;;;24.80;50.70;;;;;;5109483;28;20036;-85
2021/06/15 07:47:52;;;;;;;7.68;3.28;;;25.10;50.50;;;;;;5108470;28;20050;-87
2021/06/15 07:50:19;;;;;;;12.10;3.72;;;25.50;50.00;;;;;;5074240;28;20090;-82
2021/06/15 07:52:45;;;;;;;8.85;3.95;;;25.80;49.30;;;;;;5071484;28;20036;-84
2021/06/15 07:55:14;;;;;;;10.00;3.78;;;26.10;48.80;;;;;;5073586;28;20082;-81
2021/06/15 07:57:41;;;;;;;10.48;3.50;;;26.40;48.10;;;;;;5089732;28;20031;-83
2021/06/15 08:00:09;;;;;;;8.73;3.05;;;26.60;47.40;;;;;;5072422;28;20028;-82
2021/06/15 08:02:44;;;;;;;13.35;3.85;;;26.90;46.70;;;;;;5090760;28;20024;-81
2021/06/15 08:05:12;;;;;;;9.35;3.03;;;27.10;46.30;;;;;;5072289;28;20058;-81
2021/06/15 08:07:38;;;;;;;7.53;3.10;;;27.20;45.50;;;;;;5072541;28;20053;-80
2021/06/15 08:10:05;;;;;;;11.18;3.70;;;27.50;45.00;;;;;;5072395;28;20522;-81
2021/06/15 08:12:31;;;;;;;9.85;3.20;;;27.60;44.20;;;;;;5071772;28;20028;-80
2021/06/15 08:14:57;;;;;;;11.30;3.83;;;27.70;43.70;;;;;;5071852;28;20092;-79
2021/06/15 08:17:25;;;;;;;10.88;3.50;;;27.90;43.30;;;;;;5072625;28;20031;-80
2021/06/15 08:19:51;;;;;;;8.52;3.42;;;28.10;42.60;;;;;;5072103;28;20145;-80
2021/06/15 08:22:17;;;;;;;4.55;2.70;;;28.30;42.20;;;;;;5071132;28;20080;-81
2021/06/15 08:24:43;;;;;;;7.65;3.17;;;28.60;41.70;;;;;;5069905;28;20471;-78
2021/06/15 08:27:09;;;;;;;9.80;3.58;;;28.80;41.20;;;;;;5072323;28;20024;-80
2021/06/15 08:29:35;;;;;;;11.07;3.38;;;29.10;40.50;;;;;;5055457;28;20467;-79
2021/06/15 08:32:01;;;;;;;9.57;3.58;;;29.40;40.00;;;;;;5072277;28;20489;-78
2021/06/15 08:34:27;;;;;;;11.35;3.45;;;29.60;39.50;;;;;;5072031;28;20030;-79
2021/06/15 08:36:53;;;;;;;8.63;3.17;;;29.90;39.10;;;;;;5071744;28;20033;-80
2021/06/15 08:39:19;;;;;;;8.57;3.75;;;30.10;38.50;;;;;;5089065;28;20518;-81
2021/06/15 08:41:45;;;;;;;11.13;3.17;;;30.30;37.90;;;;;;5089247;28;20063;-80
2021/06/15 08:44:11;;;;;;;10.55;3.05;;;30.40;38.00;;;;;;5071314;28;20046;-79
2021/06/15 08:46:38;;;;;;;9.45;3.53;;;30.50;37.10;;;;;;5107430;28;20024;-79
2021/06/15 08:49:06;;;;;;;14.82;3.95;;;30.60;36.80;;;;;;5107329;28;20059;-79
2021/06/15 08:51:33;;;;;;;13.40;3.75;;;30.60;36.50;;;;;;5071648;28;20427;-79
2021/06/15 08:54:05;;;;;;;12.85;3.90;;;30.60;36.40;;;;;;5107172;28;20027;-80
2021/06/15 08:56:33;;;;;;;11.88;3.55;;;30.50;36.30;;;;;;5087913;28;20046;-81
2021/06/15 08:59:07;;;;;;;8.40;3.30;;;30.50;36.20;;;;;;5106766;28;20201;-81
2021/06/15 09:01:34;;;;;;;10.85;3.30;;;30.30;36.20;;;;;;5107255;28;20031;-82
2021/06/15 09:04:01;;;;;;;13.48;4.25;;;30.20;36.30;;;;;;5072904;28;20039;-80
2021/06/15 09:06:27;;;;;;;11.80;4.15;;;29.90;36.60;;;;;;5088930;28;20027;-82
2021/06/15 09:08:56;;;;;;;10.90;4.05;;;29.50;37.20;;;;;;5083403;28;20020;-80
2021/06/15 09:11:23;;;;;;;12.30;3.90;;;29.10;37.70;;;;;;5067350;28;20032;-80
2021/06/15 09:13:50;;;;;;;11.40;4.78;;;28.70;38.30;;;;;;5066371;28;20523;-80
2021/06/15 09:16:25;;;;;;;14.90;4.07;;;28.40;38.70;;;;;;5055870;28;20063;-80
2021/06/15 09:18:54;;;;;;;7.18;3.40;;;28.10;38.90;;;;;;5067958;28;20132;-83
2021/06/15 09:21:29;;;;;;;13.90;4.32;;;28.00;39.20;;;;;;5051629;28;20105;-81
2021/06/15 09:24:16;;;;;;;11.43;4.00;;;28.00;39.00;;;;;;5067503;28;20047;-82
2021/06/15 09:27:07;;;;;;;11.00;4.30;;;27.90;39.00;;;;;;5049319;28;20035;-81
2021/06/15 09:29:41;;;;;;;9.40;3.38;;;28.00;39.00;;;;;;5055585;28;20032;-82
2021/06/15 09:32:11;;;;;;;11.38;3.42;;;27.90;39.00;;;;;;5043974;28;20040;-81
2021/06/15 09:35:05;;;;;;;15.65;3.80;;;27.90;39.10;;;;;;5055968;28;20520;-82
2021/06/15 09:37:46;;;;;;;7.80;3.45;;;27.80;39.00;;;;;;5071691;28;20078;-81
2021/06/15 09:40:22;;;;;;;11.48;4.00;;;27.60;39.30;;;;;;5071872;28;20058;-81
2021/06/15 09:42:49;;;;;;;9.52;3.40;;;27.40;39.50;;;;;;5051161;28;20516;-80
2021/06/15 09:45:21;;;;;;;10.63;4.07;;;27.30;39.80;;;;;;5072333;28;20390;-81
2021/06/15 09:47:48;;;;;;;8.25;3.38;;;27.10;39.90;;;;;;5088683;28;20089;-81
2021/06/15 09:50:14;;;;;;;10.13;3.47;;;27.10;40.20;;;;;;5072000;28;20117;-80
2021/06/15 09:52:40;;;;;;;8.10;3.15;;;27.00;40.30;;;;;;5070416;28;20047;-81
2021/06/15 09:55:09;;;;;;;13.35;3.80;;;26.90;40.40;;;;;;5046660;28;20028;-80
2021/06/15 09:57:39;;;;;;;15.15;4.07;;;26.80;40.30;;;;;;5036707;28;20028;-80
2021/06/15 10:00:10;;;;;;;13.35;3.50;;;26.80;40.50;;;;;;5088853;28;20097;-80
2021/06/15 10:02:45;;;;;;;12.23;3.38;;;26.70;40.60;;;;;;5054819;28;20479;-80
2021/06/15 10:05:22;;;;;;;11.20;3.72;;;26.70;40.70;;;;;;5050736;28;20036;-81
2021/06/15 10:07:48;;;;;;;11.05;3.92;;;26.70;40.90;;;;;;5056338;28;20040;-80
2021/06/15 10:10:17;;;;;;;9.60;3.58;;;26.70;41.00;;;;;;5068577;28;20045;-80
2021/06/15 10:12:44;;;;;;;6.18;2.47;;;26.70;41.00;;;;;;5068101;28;20086;-81
2021/06/15 10:15:10;;;;;;;8.82;3.08;;;26.70;41.00;;;;;;5055597;28;20036;-80
2021/06/15 10:17:37;;;;;;;8.77;3.10;;;26.80;41.00;;;;;;5061091;28;20470;-79
2021/06/15 10:20:04;;;;;;;8.90;3.10;;;26.90;41.00;;;;;;5054595;28;20024;-80
2021/06/15 10:22:31;;;;;;;10.88;2.97;;;26.80;40.70;;;;;;5056895;28;20028;-80
2021/06/15 10:24:57;;;;;;;11.02;3.72;;;26.90;40.60;;;;;;5074225;28;20027;-80
2021/06/15 10:27:23;;;;;;;7.45;3.25;;;26.90;40.50;;;;;;5071124;28;20035;-82
2021/06/15 10:29:51;;;;;;;7.55;3.03;;;27.00;40.50;;;;;;5056665;28;20032;-79
2021/06/15 10:32:22;;;;;;;8.05;3.00;;;27.00;40.50;;;;;;5073716;28;20035;-79
2021/06/15 10:35:04;;;;;;;13.07;3.25;;;27.00;40.60;;;;;;5091490;28;20039;-79
2021/06/15 10:37:36;;;;;;;9.40;2.75;;;27.10;40.70;;;;;;5070399;28;20057;-80
2021/06/15 10:40:12;;;;;;;7.55;2.92;;;27.10;40.80;;;;;;5063244;28;20052;-81
2021/06/15 10:42:38;;;;;;;9.43;2.95;;;27.20;40.70;;;;;;5070738;28;20062;-81
2021/06/15 10:45:13;;;;;;;7.45;3.15;;;27.20;40.70;;;;;;5071097;28;20609;-81
2021/06/15 10:48:07;;;;;;;6.68;2.38;;;27.30;40.60;;;;;;5088012;28;20391;-80
2021/06/15 10:50:37;;;;;;;;;;;27.30;40.60;;;;;;5071966;28;20036;-81
2021/06/15 10:53:05;;;;;;;7.00;2.83;;;27.30;40.90;;;;;;5062626;28;19915;-79
2021/06/15 10:56:07;;;;;;;8.45;2.83;;;27.40;40.80;;;;;;5053908;28;20039;-81
2021/06/15 10:58:36;;;;;;;8.18;2.83;;;27.40;40.40;;;;;;5083352;28;20302;-81
2021/06/15 11:01:22;;;;;;;6.28;2.80;;;27.50;40.60;;;;;;5087745;28;20055;-81
2021/06/15 11:03:54;;;;;;;9.52;2.72;;;27.50;40.60;;;;;;5088707;28;20769;-81
2021/06/15 11:06:42;;;;;;;6.68;2.40;;;27.60;40.50;;;;;;5070517;28;20032;-81
2021/06/15 11:09:14;;;;;;;6.68;2.47;;;27.60;40.50;;;;;;5062404;28;20032;-81
2021/06/15 11:11:41;;;;;;;10.30;2.55;;;27.60;40.50;;;;;;5067599;28;20036;-81
2021/06/15 11:14:15;;;;;;;10.27;3.17;;;27.60;40.40;;;;;;5057055;28;20066;-81
2021/06/15 11:16:55;;;;;;;6.60;2.33;;;27.70;40.50;;;;;;5053447;28;20044;-82
2021/06/15 11:19:21;;;;;;;8.65;3.13;;;27.80;40.50;;;;;;5052921;28;20097;-83
2021/06/15 11:21:55;;;;;;;10.80;2.60;;;27.90;40.40;;;;;;5053425;28;20494;-82
2021/06/15 11:24:25;;;;;;;9.98;3.42;;;27.90;40.00;;;;;;5053067;28;20368;-82
2021/06/15 11:27:06;;;;;;;8.98;2.65;;;28.00;40.00;;;;;;5053228;28;20044;-83
2021/06/15 11:29:38;;;;;;;10.02;3.75;;;28.00;40.20;;;;;;5052856;28;20032;-82
2021/06/15 11:32:22;;;;;;;7.68;2.88;;;28.10;40.30;;;;;;5036072;28;20119;-81
2021/06/15 11:34:58;;;;;;;11.80;2.92;;;28.10;40.10;;;;;;5032979;28;20067;-81
2021/06/15 11:37:37;;;;;;;10.23;2.60;;;28.10;40.00;;;;;;5016755;28;20459;-82
2021/06/15 11:40:19;;;;;;;8.65;2.78;;;28.10;40.00;;;;;;5033033;28;20039;-81
2021/06/15 11:42:51;;;;;;;11.05;3.20;;;28.20;40.30;;;;;;5050108;28;20634;-82
2021/06/15 11:45:17;;;;;;;7.50;2.65;;;28.20;40.30;;;;;;5049567;28;20066;-82
2021/06/15 11:47:55;;;;;;;7.47;2.47;;;28.30;40.30;;;;;;5049346;28;20059;-82
2021/06/15 11:50:32;;;;;;;14.02;3.22;;;28.30;40.40;;;;;;5066647;28;20123;-83
2021/06/15 11:53:01;;;;;;;8.32;2.65;;;28.30;40.60;;;;;;5056296;28;20077;-82
2021/06/15 11:55:32;;;;;;;9.80;3.28;;;28.30;40.50;;;;;;5069231;28;20080;-81
2021/06/15 11:58:02;;;;;;;5.70;3.05;;;28.40;40.50;;;;;;5068954;28;20475;-80
2021/06/15 12:00:29;;;;;;;7.05;3.00;;;28.40;40.50;;;;;;5052405;28;20028;-81
2021/06/15 12:03:10;;;;;;;10.10;2.60;;;28.50;40.50;;;;;;5052578;28;20032;-81
2021/06/15 12:05:38;;;;;;;9.65;2.88;;;28.50;40.40;;;;;;5051842;28;20089;-79
2021/06/15 12:08:04;;;;;;;7.97;2.20;;;28.50;40.30;;;;;;5052064;28;20028;-80
2021/06/15 12:10:30;;;;;;;5.47;2.50;;;28.60;40.20;;;;;;5052126;28;20032;-80
2021/06/15 12:13:07;;;;;;;7.07;2.55;;;28.70;40.30;;;;;;5051962;28;20367;-80
2021/06/15 12:15:43;;;;;;;5.93;2.00;;;28.70;40.10;;;;;;5048260;28;20047;-81
2021/06/15 12:18:27;;;;;;;6.53;2.17;;;28.70;39.90;;;;;;5034359;28;20101;-80
2021/06/15 12:21:00;;;;;;;6.78;2.40;;;28.80;39.80;;;;;;5065562;28;20040;-80
2021/06/15 12:23:40;;;;;;;5.72;2.25;;;28.80;39.90;;;;;;5035407;28;20448;-80
2021/06/15 12:26:07;;;;;;;6.97;2.42;;;28.90;39.80;;;;;;5052052;28;20132;-80
2021/06/15 12:28:36;;;;;;;7.28;2.60;;;29.00;39.60;;;;;;5051829;28;20115;-81
2021/06/15 12:31:16;;;;;;;6.90;2.40;;;29.00;39.40;;;;;;5068344;28;20032;-81
2021/06/15 12:33:44;;;;;;;10.20;3.42;;;29.10;39.60;;;;;;5068661;28;20120;-81
2021/06/15 12:36:14;;;;;;;9.77;3.17;;;29.10;39.60;;;;;;5052058;28;20055;-80
2021/06/15 12:38:41;;;;;;;8.98;3.45;;;29.10;39.80;;;;;;5051880;28;20039;-80
2021/06/15 12:41:11;;;;;;;7.57;3.33;;;29.20;39.90;;;;;;5051973;28;20024;-79
2021/06/15 12:43:38;;;;;;;9.90;3.22;;;29.20;40.00;;;;;;5051606;28;20504;-78
2021/06/15 12:46:28;;;;;;;17.40;3.75;;;29.20;40.00;;;;;;5051536;28;20475;-80
2021/06/15 12:49:04;;;;;;;10.27;3.03;;;29.30;40.00;;;;;;5051771;28;20027;-80
2021/06/15 12:51:44;;;;;;;8.68;2.83;;;29.30;40.20;;;;;;5068177;28;20410;-80
2021/06/15 12:54:24;;;;;;;10.63;3.35;;;29.30;41.00;;;;;;5047904;28;20024;-80
2021/06/15 12:56:58;;;;;;;9.63;3.58;;;29.30;40.30;;;;;;5065828;28;20051;-80
2021/06/15 12:59:24;;;;;;;10.52;3.67;;;29.40;40.30;;;;;;5055946;28;20085;-79
2021/06/15 13:01:53;;;;;;;9.65;4.05;;;29.40;40.20;;;;;;5083630;28;20031;-79
2021/06/15 13:04:21;;;;;;;11.60;3.53;;;29.40;40.10;;;;;;5068575;28;20029;-80
2021/06/15 13:06:49;;;;;;;13.63;3.60;;;29.40;40.10;;;;;;5066206;28;20029;-79